WetterOnline ( https://www.wetteronline.de )

Wetter aktuell Großgmain

Aktuelles Wetter: Salzburg Flughafen (450m)

6-stündlich | Neueste Meldungen
Ortszeit Temperatur Wetter
Mi, 22.05. 20:00 12.9° C bedeckt
Mi, 22.05. 14:00 13.3° C bedeckt
Mi, 22.05. 8:00 10.2° C leichter Regen
Mi, 22.05. 2:00 10.0° C Schauer
Di, 21.05. 20:00 13.2° C bewölkt
Di, 21.05. 14:00 13.0° C leichter Regen
Di, 21.05. 8:00 10.5° C leichter Regen
Di, 21.05. 2:00 10.2° C leichter Regen
Ortszeit Temperatur Wetter
Do, 23.05. 1:20 11° C bewölkt
Do, 23.05. 1:00 10.9° C bewölkt
Do, 23.05. 0:50 11° C bewölkt
Do, 23.05. 0:20 11° C bewölkt
Do, 23.05. 0:00 11.1° C bewölkt
Mi, 22.05. 23:50 11° C bewölkt
Mi, 22.05. 23:20 11° C bewölkt
Mi, 22.05. 23:00 11.5° C bewölkt
Mi, 22.05. 22:20 12° C bewölkt
Mi, 22.05. 22:00 11.5° C bewölkt
Ortszeit Relative Feuchte Sichtweite
Mi, 22.05. 20:00 86% 30 km
Mi, 22.05. 14:00 79% 45 km
Mi, 22.05. 8:00 96% 15 km
Mi, 22.05. 2:00 95% 7 km
Di, 21.05. 20:00 65% 65 km
Di, 21.05. 14:00 69% 24 km
Di, 21.05. 8:00 82% 30 km
Di, 21.05. 2:00 83% 22 km
Ortszeit Relative Feuchte Sichtweite
Do, 23.05. 1:20 94% >10 km
Do, 23.05. 1:00 94% 13 km
Do, 23.05. 0:50 94% >10 km
Do, 23.05. 0:20 94% >10 km
Do, 23.05. 0:00 92% 21 km
Mi, 22.05. 23:50 94% >10 km
Mi, 22.05. 23:20 94% >10 km
Mi, 22.05. 23:00 91% 27 km
Mi, 22.05. 22:20 88% >10 km
Mi, 22.05. 22:00 91% 30 km
Ortszeit Niederschlagsmenge Niederschlagsart
Mi, 22.05. 20:00 5 l/m2 in 12 Std. -
Mi, 22.05. 14:00 4 l/m2 in 6 Std. -
Mi, 22.05. 8:00 19 l/m2 in 12 Std. -
Mi, 22.05. 2:00 5 l/m2 in 6 Std. -
Di, 21.05. 20:00 3 l/m2 in 12 Std. -
Di, 21.05. 14:00 2 l/m2 in 6 Std. -
Di, 21.05. 8:00 22 l/m2 in 12 Std. -
Di, 21.05. 2:00 14 l/m2 in 6 Std. -
Ortszeit Niederschlagsmenge Niederschlagsart
Do, 23.05. 1:20 keine Meldung -
Do, 23.05. 1:00 0.0 l/m2 in 1 Std. -
Do, 23.05. 0:50 keine Meldung -
Do, 23.05. 0:20 keine Meldung -
Do, 23.05. 0:00 0.0 l/m2 in 1 Std. -
Mi, 22.05. 23:50 keine Meldung -
Mi, 22.05. 23:20 keine Meldung -
Mi, 22.05. 23:00 0.0 l/m2 in 1 Std. -
Mi, 22.05. 22:20 keine Meldung -
Mi, 22.05. 22:00 0.0 l/m2 in 1 Std. -
Ortszeit Stärke Spitze Richtung
km/h Bft. km/h Grad Sektor
Mi, 22.05. 20:00 7 2 - - -
Mi, 22.05. 14:00 11 2 - - -
Mi, 22.05. 8:00 11 2 - - -
Mi, 22.05. 2:00 11 2 - - -
Di, 21.05. 20:00 14 3 - 260° W
Di, 21.05. 14:00 11 2 - 250° W
Di, 21.05. 8:00 22 4 - 210° SW
Di, 21.05. 2:00 22 4 - 210° SW
Ortszeit Stärke Spitze Richtung
km/h Bft. km/h Grad Sektor
Do, 23.05. 1:20 7 2 - 200° S
Do, 23.05. 1:00 7 2 - - -
Do, 23.05. 0:50 7 2 - 200° S
Do, 23.05. 0:20 6 1 - 200° S
Do, 23.05. 0:00 7 2 - - -
Mi, 22.05. 23:50 6 1 - 160° S
Mi, 22.05. 23:20 6 1 - 230° SW
Mi, 22.05. 23:00 7 2 - - -
Mi, 22.05. 22:20 9 2 - 230° SW
Mi, 22.05. 22:00 7 2 - - -
Ortszeit Untergrenze Bedeckung Gattung
total tief tief mittel hoch
Mi, 22.05. 20:00 300 m 8/8 6/8 Sc - -
Mi, 22.05. 14:00 240 m 8/8 6/8 Sc - -
Mi, 22.05. 8:00 90 m 8/8 5/8 St - -
Mi, 22.05. 2:00 510 m 8/8 5/8 - - -
Di, 21.05. 20:00 750 m 7/8 7/8 Sc - -
Di, 21.05. 14:00 1050 m 7/8 6/8 Sc - -
Di, 21.05. 8:00 1200 m 8/8 7/8 Sc - -
Di, 21.05. 2:00 1020 m 8/8 5/8 - - -
Ortszeit Bedeckungsgrad in Achtel und Wolkenuntergrenze
Do, 23.05. 1:20 1-2(900m) 3-4(1020m) 7(1500m)
Do, 23.05. 1:00 1(780m) 3(900m) 5(1200m)
Do, 23.05. 0:50 1-2(780m) 3-4(900m) 5-7(1200m)
Do, 23.05. 0:20 1-2(840m) 3-4(1080m) 7(1320m)
Do, 23.05. 0:00 1(900m) 3(1020m) 6(1500m)
Mi, 22.05. 23:50 1-2(900m) 3-4(1020m) 7(1500m)
Mi, 22.05. 23:20 1-2(720m) 5-7(960m)
Mi, 22.05. 23:00 1(720m) 5(1020m)
Mi, 22.05. 22:20 1-2(600m) 3-4(960m) 5-7(2100m)
Mi, 22.05. 22:00 1(660m) 3(1080m) 6(1500m)
Ortszeit Luftdruck NN (hPa) Tendenz (hPa in 3 Std.)
Mi, 22.05. 20:00 1019 + 0,6
Mi, 22.05. 14:00 1018 + 0,8
Mi, 22.05. 8:00 1016 + 1,2
Mi, 22.05. 2:00 1014 + 0,6
Di, 21.05. 20:00 1011 + 0,7
Di, 21.05. 14:00 1010 + 1,0
Di, 21.05. 8:00 1007 + 2,0
Di, 21.05. 2:00 1005 + 0,5
Ortszeit Luftdruck NN (hPa) Tendenz (hPa in 3 Std.)
Do, 23.05. 1:20 1020 keine Meldung
Do, 23.05. 1:00 1020 + 0,1
Do, 23.05. 0:50 1020 keine Meldung
Do, 23.05. 0:20 1020 keine Meldung
Do, 23.05. 0:00 1020 + 0,6
Mi, 22.05. 23:50 1020 keine Meldung
Mi, 22.05. 23:20 1020 keine Meldung
Mi, 22.05. 23:00 1020 + 1,1
Mi, 22.05. 22:20 1020 keine Meldung
Mi, 22.05. 22:00 1020 + 1,1
Ortszeit Schneehöhe (cm)
Mi, 22.05. 20:00 -
Mi, 22.05. 14:00 -
Mi, 22.05. 8:00 -
Mi, 22.05. 2:00 -
Di, 21.05. 20:00 -
Di, 21.05. 14:00 -
Di, 21.05. 8:00 -
Di, 21.05. 2:00 -
Ortszeit Schneehöhe (cm)
Do, 23.05. 1:20 -
Do, 23.05. 1:00 -
Do, 23.05. 0:50 -
Do, 23.05. 0:20 -
Do, 23.05. 0:00 -
Mi, 22.05. 23:50 -
Mi, 22.05. 23:20 -
Mi, 22.05. 23:00 -
Mi, 22.05. 22:20 -
Mi, 22.05. 22:00 -
Link zu dieser Seite / Seite empfehlen

Das Wetter in ...